KAWO

Arlington Municipal Airport

Arlington, Washington, USA
METAR KAWO 170756Z AUTO 12009KT 10SM -RA BKN015 OVC034 06/04 A3023 RMK AO2 SLP243 P0000 T00560044 400610017
Observed Flight Rules
Dec-17 @ 07:56 UTC (22 minutes ago) Marginal Visual Flight Rules
Wind Visibility Clouds Conditions
120° at 9 knots 10 miles
  • Broken at 1,500' AGL
  • Overcast at 3,400' AGL
  • Light Rain
Temperatures Readings Precipitation
Current 6°C / 43°F
Dewpoint 4°C / 39°F
Humidity 87%
Altimeter 30.23" Hg
Pressure 1024.3 hPa
Elevation 42
Current Rain 0.005
METAR KAWO 170756Z AUTO 12009KT 10SM -RA BKN015 OVC034 06/04 A3023 RMK AO2 SLP243 P0000 T00560044 400610017
Observed Flight Rules
Dec-17 @ 07:56 UTC
(22 minutes ago)
MVFR
Wind Visibility
120° at 9 knots 10 miles
Clouds
  • Broken at 1,500' AGL
  • Overcast at 3,400' AGL
Conditions
  • Light Rain
Temperature Dewpoint
6°C / 43°F 4°C / 39°F
Humidity Altimeter Pressure
87% 30.23" Hg 1024.3 hPa
Current Rain
0.005